Time;durP1;ratioP1;P1;durP2;ratioP2;P2;SDS_P1;SDS_P2;PMS_P1;PMS_P2;Temp;Humidity;BMP_temperature;BMP_pressure;BME280_temperature;BME280_humidity;BME280_pressure;Samples;Min_cycle;Max_cycle;Signal;HPM_P1;HPM_P2
2022/05/11 00:00:13;;;;;;;6.05;3.85;;;12.60;99.90;;;;;;4993111;28;20034;-76
2022/05/11 00:02:40;;;;;;;4.25;2.78;;;12.60;99.90;;;;;;4991093;28;20121;-76
2022/05/11 00:05:08;;;;;;;5.28;3.22;;;12.60;99.90;;;;;;4985007;28;20073;-76
2022/05/11 00:07:37;;;;;;;6.15;3.63;;;12.70;99.90;;;;;;4977124;28;20042;-74
2022/05/11 00:10:11;;;;;;;4.38;2.92;;;12.70;99.90;;;;;;4993529;28;20305;-76
2022/05/11 00:12:42;;;;;;;4.43;3.30;;;12.70;99.90;;;;;;4987508;28;20046;-76
2022/05/11 00:15:09;;;;;;;3.83;2.95;;;12.80;99.90;;;;;;4986088;28;20414;-76
2022/05/11 00:17:35;;;;;;;4.13;2.78;;;12.70;99.90;;;;;;4991792;28;20128;-75
2022/05/11 00:20:02;;;;;;;4.10;2.72;;;12.70;99.90;;;;;;4985110;28;20081;-75
2022/05/11 00:22:27;;;;;;;3.90;2.90;;;12.70;99.90;;;;;;4986809;28;20053;-76
2022/05/11 00:24:58;;;;;;;4.47;2.83;;;12.70;99.90;;;;;;4967331;28;20042;-75
2022/05/11 00:27:24;;;;;;;4.88;2.78;;;12.70;99.90;;;;;;4991003;28;20048;-76
2022/05/11 00:29:51;;;;;;;3.40;2.78;;;12.70;99.90;;;;;;4994508;28;20049;-75
2022/05/11 00:32:17;;;;;;;3.75;2.97;;;12.70;99.90;;;;;;4986670;28;20054;-76
2022/05/11 00:34:43;;;;;;;7.97;3.28;;;12.70;99.90;;;;;;4985057;28;20394;-76
2022/05/11 00:37:09;;;;;;;4.82;3.20;;;12.70;99.90;;;;;;4981650;28;20054;-76
2022/05/11 00:39:35;;;;;;;4.88;3.30;;;12.70;99.90;;;;;;4988968;28;20046;-76
2022/05/11 00:42:04;;;;;;;4.57;3.10;;;12.70;99.90;;;;;;4975004;28;20482;-76
2022/05/11 00:44:31;;;;;;;4.85;3.03;;;12.70;99.90;;;;;;4983115;28;20050;-76
2022/05/11 00:46:58;;;;;;;3.58;2.95;;;12.60;99.90;;;;;;4975609;28;20400;-76
2022/05/11 00:49:52;;;;;;;5.15;3.25;;;12.60;99.90;;;;;;4977603;28;20039;-75
2022/05/11 00:52:25;;;;;;;;;;;12.60;99.90;;;;;;4981173;28;20045;-76
2022/05/11 00:55:07;;;;;;;8.13;3.20;;;12.60;99.90;;;;;;4981598;28;19918;-76
2022/05/11 00:57:38;;;;;;;4.65;3.25;;;12.60;99.90;;;;;;4977524;28;20046;-76
2022/05/11 01:00:10;;;;;;;4.45;3.38;;;12.50;99.90;;;;;;4981660;28;20038;-76
2022/05/11 01:02:38;;;;;;;7.05;3.55;;;12.50;99.90;;;;;;4997704;28;20123;-75
2022/05/11 01:05:10;;;;;;;5.30;3.25;;;12.50;99.90;;;;;;4983495;28;20030;-76
2022/05/11 01:07:38;;;;;;;4.90;3.13;;;12.50;99.90;;;;;;5003314;28;20049;-76
2022/05/11 01:10:07;;;;;;;4.75;3.40;;;12.50;99.90;;;;;;4982252;28;20505;-76
2022/05/11 01:12:41;;;;;;;6.60;3.60;;;12.50;99.90;;;;;;4983782;28;20038;-75
2022/05/11 01:15:09;;;;;;;3.83;3.15;;;12.50;99.90;;;;;;4983653;28;20511;-75
2022/05/11 01:17:37;;;;;;;7.05;3.92;;;12.60;99.90;;;;;;4974392;28;20051;-76
2022/05/11 01:20:13;;;;;;;7.45;3.58;;;12.50;99.90;;;;;;4992275;28;20520;-76
2022/05/11 01:23:03;;;;;;;4.93;3.08;;;12.60;99.90;;;;;;4992398;28;20524;-76
2022/05/11 01:25:31;;;;;;;4.95;3.38;;;12.60;99.90;;;;;;4985603;28;20042;-76
2022/05/11 01:28:03;;;;;;;6.78;3.60;;;12.60;99.90;;;;;;4989692;28;20057;-76
2022/05/11 01:30:29;;;;;;;5.68;3.50;;;12.60;99.90;;;;;;4984025;28;20046;-76
2022/05/11 01:32:58;;;;;;;5.90;3.60;;;12.60;99.90;;;;;;4974499;28;20034;-76
2022/05/11 01:35:54;;;;;;;6.53;3.50;;;12.60;99.90;;;;;;4984037;28;20498;-76
2022/05/11 01:38:43;;;;;;;9.52;4.03;;;12.60;99.90;;;;;;4981003;28;20466;-75
2022/05/11 01:41:16;;;;;;;5.63;3.30;;;12.60;99.90;;;;;;4985414;28;20033;-75
2022/05/11 01:43:44;;;;;;;4.68;3.53;;;12.60;99.90;;;;;;4991781;28;20136;-75
2022/05/11 01:46:10;;;;;;;8.48;4.35;;;12.70;99.90;;;;;;4972676;28;20038;-76
2022/05/11 01:48:36;;;;;;;5.72;3.40;;;12.70;99.90;;;;;;4974721;28;20125;-76
2022/05/11 01:51:03;;;;;;;4.53;3.47;;;12.70;99.90;;;;;;4983176;28;20564;-76
2022/05/11 01:53:29;;;;;;;8.98;4.10;;;12.80;99.90;;;;;;4982478;28;20050;-75
2022/05/11 01:55:55;;;;;;;5.43;3.67;;;12.70;99.90;;;;;;4990911;28;20088;-76
2022/05/11 01:58:23;;;;;;;6.88;3.55;;;12.70;99.90;;;;;;4978471;28;20043;-76
2022/05/11 02:00:48;;;;;;;5.18;3.45;;;12.70;99.90;;;;;;4972524;28;20074;-76
2022/05/11 02:03:20;;;;;;;4.78;3.58;;;12.70;99.90;;;;;;4979685;28;20073;-75
2022/05/11 02:08:37;;;;;;;5.30;3.17;;;12.80;99.90;;;;;;4977681;28;20122;-76
2022/05/11 02:11:04;;;;;;;4.82;3.33;;;12.70;99.90;;;;;;4971942;28;20046;-76
2022/05/11 02:13:32;;;;;;;6.18;3.17;;;12.80;99.90;;;;;;4971879;28;20113;-75
2022/05/11 02:15:58;;;;;;;4.97;2.90;;;12.80;99.90;;;;;;4975208;28;20049;-76
2022/05/11 02:18:26;;;;;;;4.45;3.00;;;12.70;99.90;;;;;;4962240;28;20051;-76
2022/05/11 02:20:54;;;;;;;5.43;3.00;;;12.80;99.90;;;;;;4981082;28;20074;-75
2022/05/11 02:23:21;;;;;;;5.20;3.03;;;12.80;99.90;;;;;;4990483;28;20516;-76
2022/05/11 02:25:48;;;;;;;4.22;2.88;;;12.80;99.90;;;;;;4989945;28;20084;-75
2022/05/11 02:28:16;;;;;;;5.13;3.08;;;12.80;99.90;;;;;;4979559;28;20166;-76
2022/05/11 02:30:45;;;;;;;4.15;2.53;;;12.80;99.90;;;;;;4971910;28;20102;-75
2022/05/11 02:33:12;;;;;;;4.95;2.78;;;12.80;99.90;;;;;;4984541;28;20038;-75
2022/05/11 02:35:38;;;;;;;4.97;2.70;;;12.80;99.90;;;;;;4971747;28;20548;-76
2022/05/11 02:38:13;;;;;;;4.53;3.00;;;12.90;99.90;;;;;;4972822;28;20444;-75
2022/05/11 02:40:43;;;;;;;4.90;2.83;;;12.90;99.90;;;;;;4972309;28;20468;-76
2022/05/11 02:43:11;;;;;;;6.07;2.78;;;12.90;99.90;;;;;;4979562;28;20050;-75
2022/05/11 02:45:41;;;;;;;5.93;3.20;;;12.90;99.90;;;;;;4979590;28;20571;-76
2022/05/11 02:48:12;;;;;;;5.30;3.17;;;12.90;99.90;;;;;;4979616;28;20043;-75
2022/05/11 02:50:48;;;;;;;4.50;3.03;;;12.90;99.90;;;;;;4978354;28;20077;-75
2022/05/11 02:53:14;;;;;;;5.35;3.40;;;12.90;99.90;;;;;;4974807;28;20082;-76
2022/05/11 02:55:46;;;;;;;4.57;2.90;;;12.90;99.90;;;;;;4991136;28;20058;-75
2022/05/11 02:58:13;;;;;;;6.60;3.30;;;12.90;99.90;;;;;;4973632;28;20042;-75
2022/05/11 03:00:43;;;;;;;3.42;2.70;;;12.80;99.90;;;;;;4988779;28;20038;-75
2022/05/11 03:03:11;;;;;;;4.75;3.00;;;12.90;99.90;;;;;;4987849;28;20055;-75
2022/05/11 03:05:38;;;;;;;4.28;2.80;;;12.90;99.90;;;;;;4976321;28;20477;-76
2022/05/11 03:08:04;;;;;;;5.07;2.78;;;12.90;99.90;;;;;;4989987;28;20057;-75
2022/05/11 03:10:31;;;;;;;6.07;4.05;;;12.90;99.90;;;;;;4976811;28;20049;-75
2022/05/11 03:12:57;;;;;;;4.85;2.78;;;12.80;99.90;;;;;;4971419;28;20039;-75
2022/05/11 03:15:28;;;;;;;4.72;2.72;;;12.80;99.90;;;;;;4985547;28;20054;-75
2022/05/11 03:17:59;;;;;;;4.45;2.70;;;12.80;99.90;;;;;;4987666;28;20390;-76
2022/05/11 03:20:26;;;;;;;7.25;3.33;;;12.90;99.90;;;;;;4987381;28;20042;-75
2022/05/11 03:22:53;;;;;;;4.75;2.88;;;12.80;99.90;;;;;;4973943;28;20038;-75
2022/05/11 03:25:23;;;;;;;3.80;2.80;;;12.80;99.90;;;;;;4971059;28;20041;-75
2022/05/11 03:27:53;;;;;;;5.45;3.60;;;12.80;99.90;;;;;;4977503;28;20140;-76
2022/05/11 03:30:20;;;;;;;4.43;2.90;;;12.80;99.90;;;;;;4986404;28;20042;-75
2022/05/11 03:35:30;;;;;;;7.78;5.20;;;12.80;99.90;;;;;;4981885;28;20137;-74
2022/05/11 03:37:56;;;;;;;5.97;3.38;;;12.80;99.90;;;;;;4976460;28;20118;-76
2022/05/11 03:40:27;;;;;;;5.80;3.28;;;12.90;99.90;;;;;;4984143;28;20154;-75
2022/05/11 03:42:53;;;;;;;6.38;4.18;;;12.80;99.90;;;;;;4992420;28;20129;-75
2022/05/11 03:45:22;;;;;;;5.60;3.25;;;12.80;99.90;;;;;;4983909;28;20125;-75
2022/05/11 03:47:51;;;;;;;6.13;3.37;;;12.80;99.90;;;;;;4994254;28;20046;-75
2022/05/11 03:50:22;;;;;;;5.32;3.60;;;12.90;99.90;;;;;;4983735;28;20637;-75
2022/05/11 03:52:52;;;;;;;5.63;3.78;;;12.90;99.90;;;;;;4958920;28;20074;-75
2022/05/11 03:55:18;;;;;;;6.10;4.65;;;12.80;99.90;;;;;;4985439;28;20496;-76
2022/05/11 03:57:44;;;;;;;7.88;3.70;;;12.80;99.90;;;;;;4987076;28;20030;-76
2022/05/11 04:00:13;;;;;;;6.53;4.00;;;12.90;99.90;;;;;;4984084;28;20409;-76
2022/05/11 04:02:40;;;;;;;4.97;3.28;;;12.90;99.90;;;;;;4986163;28;20405;-76
2022/05/11 04:05:11;;;;;;;4.82;3.70;;;12.90;99.90;;;;;;4960416;28;20077;-75
2022/05/11 04:07:41;;;;;;;6.20;3.50;;;12.90;99.90;;;;;;4993094;28;20034;-75
2022/05/11 04:10:09;;;;;;;6.40;3.78;;;12.90;99.90;;;;;;4992490;28;20041;-76
2022/05/11 04:12:35;;;;;;;6.13;3.58;;;12.90;99.90;;;;;;4985711;28;20053;-76
2022/05/11 04:15:07;;;;;;;7.32;4.20;;;12.90;99.90;;;;;;4975675;28;20046;-75
2022/05/11 04:17:33;;;;;;;6.28;3.40;;;12.90;99.90;;;;;;4973897;28;20034;-75
2022/05/11 04:19:58;;;;;;;5.35;3.42;;;12.90;99.90;;;;;;4970215;28;20563;-76
2022/05/11 04:22:24;;;;;;;6.28;3.92;;;12.90;99.90;;;;;;4971071;28;20512;-76
2022/05/11 04:24:50;;;;;;;6.05;3.42;;;12.90;99.90;;;;;;4983029;28;20125;-76
2022/05/11 04:27:16;;;;;;;5.38;3.13;;;12.90;99.90;;;;;;4981803;28;20097;-75
2022/05/11 04:29:44;;;;;;;6.25;3.08;;;12.90;99.90;;;;;;4973440;28;20497;-75
2022/05/11 04:32:10;;;;;;;5.82;3.78;;;12.90;99.90;;;;;;4983302;28;20133;-75
2022/05/11 04:34:39;;;;;;;7.03;3.67;;;12.80;99.90;;;;;;4982349;28;20050;-75
2022/05/11 04:37:08;;;;;;;5.90;3.85;;;12.80;99.90;;;;;;4982633;28;20038;-76
2022/05/11 04:39:34;;;;;;;7.25;3.42;;;12.90;99.90;;;;;;4974177;28;20043;-75
2022/05/11 04:42:00;;;;;;;6.30;3.65;;;12.90;99.90;;;;;;4981716;28;20247;-75
2022/05/11 04:44:26;;;;;;;6.05;3.75;;;12.90;99.90;;;;;;4988485;28;20049;-76
2022/05/11 04:46:54;;;;;;;7.15;3.92;;;13.00;99.90;;;;;;4983753;28;20489;-76
2022/05/11 04:49:25;;;;;;;9.00;3.88;;;13.00;99.90;;;;;;4989139;28;20050;-75
2022/05/11 04:52:07;;;;;;;6.03;3.97;;;13.00;99.90;;;;;;4977995;28;20540;-75
2022/05/11 04:54:38;;;;;;;5.68;3.70;;;13.00;99.90;;;;;;4978227;28;20423;-76
2022/05/11 04:57:05;;;;;;;6.50;3.85;;;13.00;99.90;;;;;;4982628;28;20047;-75
2022/05/11 04:59:37;;;;;;;6.35;4.07;;;13.00;99.90;;;;;;4984099;28;20052;-75
2022/05/11 05:02:04;;;;;;;7.50;4.20;;;13.00;99.90;;;;;;4980896;28;20046;-75
2022/05/11 05:04:33;;;;;;;5.45;3.42;;;13.10;99.90;;;;;;4982875;28;20128;-76
2022/05/11 05:07:01;;;;;;;7.10;4.13;;;13.10;99.90;;;;;;4974524;28;20035;-75
2022/05/11 05:09:27;;;;;;;6.10;4.22;;;13.10;99.90;;;;;;4977115;28;20048;-76
2022/05/11 05:11:55;;;;;;;8.40;3.88;;;13.20;99.90;;;;;;4990228;28;20217;-76
2022/05/11 05:14:22;;;;;;;7.80;4.30;;;13.20;99.90;;;;;;4991537;28;20421;-75
2022/05/11 05:16:48;;;;;;;7.07;4.50;;;13.30;99.90;;;;;;4988204;28;20042;-75
2022/05/11 05:19:14;;;;;;;6.82;3.90;;;13.30;99.90;;;;;;4991976;28;20057;-75
2022/05/11 05:21:43;;;;;;;7.45;4.10;;;13.40;99.90;;;;;;4983494;28;20081;-75
2022/05/11 05:24:08;;;;;;;7.43;4.55;;;13.40;99.90;;;;;;4987747;28;20070;-75
2022/05/11 05:26:34;;;;;;;6.50;3.65;;;13.40;99.90;;;;;;4970598;28;20053;-75
2022/05/11 05:31:44;;;;;;;8.05;3.78;;;13.60;99.90;;;;;;4991665;28;20635;-75
2022/05/11 05:34:12;;;;;;;5.90;3.90;;;13.70;99.90;;;;;;4989831;28;20133;-75
2022/05/11 05:36:41;;;;;;;7.25;3.80;;;13.90;99.90;;;;;;4991715;28;20034;-75
2022/05/11 05:39:06;;;;;;;6.55;3.25;;;14.00;99.90;;;;;;4983821;28;20074;-76
2022/05/11 05:41:38;;;;;;;5.63;3.35;;;14.10;99.90;;;;;;4980078;28;20508;-75
2022/05/11 05:44:09;;;;;;;8.02;3.50;;;14.20;99.90;;;;;;4957008;28;20042;-75
2022/05/11 05:46:37;;;;;;;5.70;3.13;;;14.30;99.90;;;;;;4956350;28;20050;-75
2022/05/11 05:49:06;;;;;;;5.97;3.58;;;14.40;99.90;;;;;;4981079;28;20063;-76
2022/05/11 05:51:32;;;;;;;5.82;3.42;;;14.40;99.90;;;;;;4982758;28;20064;-75
2022/05/11 05:53:58;;;;;;;5.35;3.20;;;14.40;99.90;;;;;;4989878;28;20064;-75
2022/05/11 05:56:24;;;;;;;5.97;3.10;;;14.40;99.90;;;;;;4972187;28;20137;-75
2022/05/11 05:58:58;;;;;;;4.72;2.47;;;14.40;99.90;;;;;;4978529;28;20521;-75
2022/05/11 06:01:24;;;;;;;5.57;3.13;;;14.50;99.90;;;;;;4988157;28;20117;-75
2022/05/11 06:03:53;;;;;;;5.38;2.65;;;14.60;99.90;;;;;;4987135;28;20177;-75
2022/05/11 06:06:21;;;;;;;4.82;2.22;;;14.70;99.90;;;;;;4978939;28;20045;-75
2022/05/11 06:08:46;;;;;;;4.45;2.22;;;14.80;99.90;;;;;;4986651;28;20038;-75
2022/05/11 06:11:12;;;;;;;4.43;2.20;;;14.90;99.90;;;;;;4988135;28;20496;-76
2022/05/11 06:13:38;;;;;;;3.55;1.98;;;15.00;99.90;;;;;;4987177;28;20049;-75
2022/05/11 06:16:10;;;;;;;4.60;2.20;;;15.00;99.90;;;;;;4992240;28;20148;-75
2022/05/11 06:18:36;;;;;;;5.47;2.30;;;15.10;99.90;;;;;;4991025;28;20133;-75
2022/05/11 06:21:03;;;;;;;4.07;2.05;;;15.20;99.90;;;;;;4989250;28;20298;-75
2022/05/11 06:23:31;;;;;;;3.38;1.95;;;15.30;99.90;;;;;;4974094;28;20485;-76
2022/05/11 06:26:00;;;;;;;3.55;1.98;;;15.40;99.90;;;;;;4973446;28;20041;-76
2022/05/11 06:28:25;;;;;;;4.18;2.42;;;15.50;99.90;;;;;;4982146;28;20042;-75
2022/05/11 06:30:51;;;;;;;4.32;1.88;;;15.60;99.90;;;;;;4989517;28;20507;-76
2022/05/11 06:33:19;;;;;;;4.63;2.30;;;15.70;99.90;;;;;;4966617;28;20042;-76
2022/05/11 06:35:45;;;;;;;6.05;2.45;;;15.90;99.90;;;;;;4977411;28;20046;-76
2022/05/11 06:38:19;;;;;;;4.70;2.05;;;16.00;99.90;;;;;;4979651;28;20513;-76
2022/05/11 06:40:45;;;;;;;4.22;2.03;;;16.10;99.90;;;;;;4986107;28;20034;-76
2022/05/11 06:43:11;;;;;;;3.17;1.75;;;16.30;99.90;;;;;;4980206;28;20110;-76
2022/05/11 06:45:38;;;;;;;6.47;1.90;;;16.30;99.90;;;;;;4985315;28;20030;-74
2022/05/11 06:48:12;;;;;;;4.18;1.75;;;16.50;99.90;;;;;;4984698;28;20050;-74
2022/05/11 06:50:54;;;;;;;3.50;1.90;;;16.60;99.90;;;;;;4984395;28;20049;-75
2022/05/11 06:53:22;;;;;;;3.63;1.83;;;16.60;99.90;;;;;;4966578;28;20046;-75
2022/05/11 07:01:44;;;;;;;5.05;1.70;;;16.80;99.90;;;;;;4989629;28;20043;-75
2022/05/11 07:04:13;;;;;;;4.55;1.55;;;16.80;99.90;;;;;;4991080;28;20042;-75
2022/05/11 07:06:45;;;;;;;3.03;1.60;;;16.90;99.90;;;;;;4981349;28;20046;-75
2022/05/11 07:09:16;;;;;;;3.58;1.95;;;16.90;99.90;;;;;;4967438;28;20513;-75
2022/05/11 07:14:57;;;;;;;4.60;1.60;;;17.20;99.90;;;;;;4984846;28;20050;-75
2022/05/11 07:17:47;;;;;;;3.75;1.60;;;17.30;99.90;;;;;;4991963;28;20593;-75
2022/05/11 07:20:36;;;;;;;3.17;1.33;;;17.40;99.90;;;;;;4982391;28;20046;-77
2022/05/11 07:23:21;;;;;;;3.85;2.15;;;17.40;99.90;;;;;;4974904;28;20039;-75
2022/05/11 07:25:53;;;;;;;3.58;1.10;;;17.40;99.90;;;;;;4982833;28;20042;-75
2022/05/11 07:28:27;;;;;;;2.70;0.88;;;17.40;99.90;;;;;;4992072;28;20042;-75
2022/05/11 07:30:56;;;;;;;6.05;1.30;;;17.40;99.90;;;;;;4977306;28;20133;-75
2022/05/11 07:33:28;;;;;;;2.45;0.93;;;17.50;99.90;;;;;;4985828;28;20585;-75
2022/05/11 07:36:04;;;;;;;3.80;1.00;;;17.50;99.90;;;;;;4982642;28;20073;-75
2022/05/11 07:38:40;;;;;;;9.25;1.50;;;17.60;99.90;;;;;;4970927;28;20047;-75
2022/05/11 07:41:12;;;;;;;3.85;1.00;;;17.70;99.90;;;;;;4957665;28;20042;-75
2022/05/11 07:44:07;;;;;;;2.40;1.20;;;17.70;99.90;;;;;;4985422;28;20042;-75
2022/05/11 07:46:55;;;;;;;6.57;1.30;;;17.70;99.90;;;;;;5017989;23;20046;-75
2022/05/11 07:49:24;;;;;;;3.13;1.00;;;17.80;99.90;;;;;;4990835;28;20046;-75
2022/05/11 07:51:56;;;;;;;3.65;1.15;;;17.70;99.90;;;;;;4991796;28;20046;-75
2022/05/11 07:54:24;;;;;;;2.05;0.85;;;17.80;99.90;;;;;;4992756;28;20050;-75
2022/05/11 08:00:06;;;;;;;4.00;1.17;;;18.10;99.90;;;;;;4990455;28;20101;-75
2022/05/11 08:03:02;;;;;;;4.05;1.13;;;18.40;99.90;;;;;;5003825;28;20571;-75
2022/05/11 08:05:38;;;;;;;4.47;1.10;;;18.60;99.90;;;;;;4991297;28;20045;-75
2022/05/11 08:08:13;;;;;;;3.78;0.80;;;19.00;99.90;;;;;;4985311;28;20509;-75
2022/05/11 08:10:46;;;;;;;6.95;1.27;;;19.30;99.90;;;;;;4976458;28;20042;-75
2022/05/11 08:13:21;;;;;;;4.40;1.08;;;19.60;96.50;;;;;;5000152;28;20038;-76
2022/05/11 08:15:50;;;;;;;6.57;1.40;;;19.70;97.20;;;;;;4988022;28;20052;-75
2022/05/11 08:18:33;;;;;;;4.40;1.23;;;20.10;97.10;;;;;;4992061;28;20121;-75
2022/05/11 08:21:04;;;;;;;3.88;0.80;;;20.50;94.20;;;;;;4972726;28;20061;-75
2022/05/11 08:23:33;;;;;;;4.85;1.00;;;21.10;97.30;;;;;;4986608;28;20222;-75
2022/05/11 08:26:09;;;;;;;3.72;1.10;;;21.80;96.50;;;;;;4989997;28;20129;-75
2022/05/11 08:28:49;;;;;;;3.72;0.82;;;22.20;95.20;;;;;;4991051;28;20514;-76
2022/05/11 08:34:16;;;;;;;4.05;1.17;;;23.40;92.70;;;;;;5000777;28;20042;-76
2022/05/11 08:36:49;;;;;;;4.00;1.00;;;23.80;88.60;;;;;;4991544;28;20050;-76
2022/05/11 08:39:23;;;;;;;4.47;1.05;;;24.20;82.60;;;;;;4992321;28;20085;-76
2022/05/11 08:42:06;;;;;;;3.80;0.90;;;24.70;83.40;;;;;;4984899;28;20496;-76
2022/05/11 08:45:05;;;;;;;4.47;0.95;;;25.00;71.30;;;;;;4977279;28;20046;-76
2022/05/11 08:48:10;;;;;;;2.92;0.90;;;24.90;73.30;;;;;;4991067;28;20054;-76
2022/05/11 08:50:56;;;;;;;3.03;0.95;;;24.50;55.80;;;;;;4978032;28;20054;-76
2022/05/11 08:53:58;;;;;;;3.97;1.08;;;24.10;69.50;;;;;;4992414;28;20073;-76
2022/05/11 08:56:37;;;;;;;5.55;1.17;;;24.00;61.90;;;;;;5001580;28;20104;-76
2022/05/11 08:59:28;;;;;;;3.22;1.17;;;23.90;66.70;;;;;;5007109;28;20497;-75
2022/05/11 09:02:24;;;;;;;4.03;1.10;;;23.70;65.50;;;;;;4989979;28;20038;-75
2022/05/11 09:05:08;;;;;;;3.15;1.10;;;24.10;62.50;;;;;;4983129;28;20046;-75
2022/05/11 09:07:42;;;;;;;3.35;0.93;;;24.10;61.50;;;;;;4991627;28;20147;-75
2022/05/11 09:10:44;;;;;;;;;;;;;;;;;;;;;
2022/05/11 09:13:18;;;;;;;3.63;1.10;;;24.30;62.80;;;;;;5003013;28;20054;-76
2022/05/11 09:16:29;;;;;;;2.80;1.10;;;24.70;63.90;;;;;;4987620;28;20042;-75
2022/05/11 09:19:30;;;;;;;3.58;1.00;;;25.00;56.20;;;;;;4987099;28;20061;-75
2022/05/11 09:22:37;;;;;;;7.90;1.20;;;25.30;55.70;;;;;;4974042;28;20034;-76
2022/05/11 09:25:29;;;;;;;4.63;1.30;;;25.90;54.80;;;;;;4958393;28;20059;-75
2022/05/11 09:28:17;;;;;;;4.13;1.17;;;26.30;54.20;;;;;;4985214;28;20052;-77
2022/05/11 09:31:28;;;;;;;;;;;;;;;;;;;;;
2022/05/11 09:34:12;;;;;;;4.65;1.35;;;26.70;52.70;;;;;;4979608;28;20045;-76
2022/05/11 09:37:02;;;;;;;3.30;1.05;;;27.10;53.30;;;;;;4990125;28;20054;-76
2022/05/11 09:39:35;;;;;;;2.45;0.88;;;27.40;50.50;;;;;;5002086;28;20456;-76
2022/05/11 09:42:17;;;;;;;;;;;27.40;49.20;;;;;;5008752;28;20121;-78
2022/05/11 09:44:48;;;;;;;4.75;0.70;;;27.30;46.50;;;;;;4989722;28;19921;-77
2022/05/11 09:47:35;;;;;;;2.10;0.82;;;27.20;49.80;;;;;;4976266;28;20045;-77
2022/05/11 09:50:43;;;;;;;3.20;0.70;;;27.20;47.70;;;;;;4971868;28;20096;-78
2022/05/11 09:54:05;;;;;;;;;;;;;;;;;;;;;
2022/05/11 09:56:39;;;;;;;1.50;0.60;;;27.40;48.00;;;;;;5010881;28;20114;-79
2022/05/11 09:59:37;;;;;;;0.88;0.40;;;27.70;49.20;;;;;;4993458;28;20041;-79
2022/05/11 10:02:25;;;;;;;2.38;0.70;;;27.90;47.00;;;;;;4965128;28;20042;-78
2022/05/11 10:05:13;;;;;;;2.17;0.65;;;27.90;45.10;;;;;;4982641;28;20392;-78
2022/05/11 10:07:45;;;;;;;2.40;0.55;;;27.50;41.70;;;;;;4971643;28;20057;-79
2022/05/11 10:10:56;;;;;;;1.23;0.40;;;27.30;45.70;;;;;;4957242;28;20225;-78
2022/05/11 10:13:26;;;;;;;0.70;0.50;;;27.30;46.50;;;;;;4949257;28;20105;-78
2022/05/11 10:22:07;;;;;;;2.28;0.60;;;28.00;46.40;;;;;;4990427;28;20054;-77
2022/05/11 10:25:13;;;;;;;2.83;0.70;;;28.10;44.70;;;;;;4969390;28;20034;-78
2022/05/11 10:28:05;;;;;;;2.63;0.65;;;28.30;44.70;;;;;;4985824;28;20049;-78
2022/05/11 10:30:52;;;;;;;1.92;0.65;;;28.40;43.90;;;;;;4973497;28;20049;-77
2022/05/11 10:33:34;;;;;;;3.30;0.65;;;28.20;41.80;;;;;;4972761;28;20052;-77
2022/05/11 10:36:33;;;;;;;3.28;0.90;;;28.20;45.30;;;;;;4980190;28;20082;-77
2022/05/11 10:39:05;;;;;;;2.13;0.80;;;28.30;43.50;;;;;;4974295;28;20050;-77
2022/05/11 10:41:37;;;;;;;;;;;28.30;45.10;;;;;;4985018;28;20045;-77
2022/05/11 10:44:49;;;;;;;1.63;0.60;;;28.30;44.40;;;;;;4984295;28;19918;-76
2022/05/11 10:48:18;;;;;;;2.72;1.08;;;28.30;45.50;;;;;;4978401;28;20046;-76
2022/05/11 10:51:19;;;;;;;2.72;0.90;;;28.40;47.00;;;;;;4979471;28;20039;-77
2022/05/11 10:54:05;;;;;;;2.25;0.90;;;28.60;45.60;;;;;;4975343;28;20042;-76
2022/05/11 10:57:06;;;;;;;5.22;1.00;;;28.30;44.40;;;;;;4984072;28;20042;-76
2022/05/11 11:00:08;;;;;;;5.72;1.15;;;28.20;45.70;;;;;;4986533;28;20055;-76
2022/05/11 11:10:20;;;;;;;4.07;1.10;;;29.20;45.50;;;;;;4989375;28;20057;-76
2022/05/11 11:13:30;;;;;;;1.85;1.10;;;29.60;44.20;;;;;;4969055;28;20049;-77
2022/05/11 11:16:23;;;;;;;3.92;1.15;;;29.40;42.50;;;;;;4989985;28;20385;-77
2022/05/11 11:23:32;;;;;;;3.58;1.30;;;29.80;43.90;;;;;;4985096;28;20050;-77
2022/05/11 11:26:26;;;;;;;3.63;1.15;;;29.80;43.60;;;;;;4973853;28;20500;-77
2022/05/11 11:28:58;;;;;;;2.45;1.20;;;29.80;45.10;;;;;;4978468;28;20050;-77
2022/05/11 11:31:34;;;;;;;3.47;1.23;;;30.00;44.30;;;;;;4982019;28;20056;-77
2022/05/11 11:34:27;;;;;;;3.60;1.40;;;30.10;44.60;;;;;;4982124;28;20814;-77
2022/05/11 11:37:23;;;;;;;4.43;1.27;;;30.10;44.40;;;;;;4981621;23;20043;-77
2022/05/11 11:40:13;;;;;;;3.80;1.38;;;30.30;44.60;;;;;;4939097;28;20061;-77
2022/05/11 11:43:38;;;;;;;2.40;0.88;;;30.40;43.80;;;;;;4976165;28;20550;-77
2022/05/11 11:46:04;;;;;;;4.72;1.50;;;30.40;42.30;;;;;;5009163;23;20049;-76
2022/05/11 11:48:52;;;;;;;;;;;;;;;;;;;;;
2022/05/11 11:52:28;;;;;;;4.65;1.23;;;30.20;42.40;;;;;;5018927;28;20133;-76
2022/05/11 11:55:06;;;;;;;5.68;1.40;;;29.90;42.40;;;;;;5016774;28;20105;-77
2022/05/11 11:57:38;;;;;;;3.15;1.08;;;30.10;43.80;;;;;;4999709;28;20073;-76
2022/05/11 12:00:28;;;;;;;3.35;1.02;;;30.30;43.10;;;;;;5003169;28;20074;-77
2022/05/11 12:02:55;;;;;;;3.78;1.10;;;30.40;43.10;;;;;;4995459;28;20125;-77
2022/05/11 12:05:32;;;;;;;3.17;1.15;;;30.70;43.30;;;;;;5008454;28;20039;-77
2022/05/11 12:16:53;;;;;;;4.05;1.08;;;29.80;43.20;;;;;;5007361;28;20581;-77
2022/05/11 12:19:23;;;;;;;3.58;1.30;;;29.90;42.60;;;;;;5012868;28;20064;-77
2022/05/11 12:21:56;;;;;;;3.67;1.20;;;30.00;43.50;;;;;;5012831;28;20072;-77
2022/05/11 12:24:28;;;;;;;3.28;1.40;;;29.90;41.60;;;;;;5003978;28;20041;-77
2022/05/11 12:27:03;;;;;;;4.03;0.98;;;29.50;42.50;;;;;;5007359;28;20046;-77
2022/05/11 12:32:30;;;;;;;3.83;1.10;;;28.90;43.30;;;;;;4993006;28;20038;-77
2022/05/11 12:35:05;;;;;;;4.43;1.20;;;28.00;43.80;;;;;;4976565;28;20068;-77
2022/05/11 12:37:33;;;;;;;5.63;1.20;;;27.40;44.80;;;;;;5008023;28;20514;-77
2022/05/11 12:40:17;;;;;;;4.15;1.38;;;27.50;46.40;;;;;;5002294;28;20536;-77
2022/05/11 12:43:00;;;;;;;6.93;1.33;;;27.80;45.60;;;;;;5007315;28;20045;-77
2022/05/11 12:45:42;;;;;;;4.32;1.17;;;27.70;45.80;;;;;;5002582;28;20485;-77
2022/05/11 12:48:09;;;;;;;2.72;1.10;;;28.20;45.70;;;;;;4994967;28;20082;-77
2022/05/11 12:50:38;;;;;;;2.50;1.10;;;28.00;45.00;;;;;;4995712;28;20475;-77
2022/05/11 12:53:14;;;;;;;7.75;1.70;;;27.60;46.00;;;;;;4993919;28;20113;-77
2022/05/11 12:55:40;;;;;;;3.65;1.25;;;27.90;46.60;;;;;;4992492;28;20077;-77
2022/05/11 12:58:29;;;;;;;2.50;1.08;;;28.40;46.00;;;;;;4978433;28;20037;-77
2022/05/11 13:00:57;;;;;;;4.57;1.15;;;28.10;44.90;;;;;;5009780;28;20042;-77
2022/05/11 13:03:36;;;;;;;3.17;1.20;;;28.20;45.80;;;;;;4999918;28;20050;-77
2022/05/11 13:06:43;;;;;;;4.30;1.10;;;28.80;45.40;;;;;;4976137;28;20075;-77
2022/05/11 13:09:35;;;;;;;3.42;1.00;;;29.40;44.90;;;;;;4999529;28;20503;-77
2022/05/11 13:12:02;;;;;;;4.28;1.65;;;30.00;43.80;;;;;;5000325;28;20126;-77
2022/05/11 13:14:37;;;;;;;4.57;1.38;;;30.10;44.00;;;;;;4992491;28;20390;-77
2022/05/11 13:17:25;;;;;;;4.28;1.20;;;30.20;44.00;;;;;;4991619;28;20049;-77
2022/05/11 13:20:22;;;;;;;4.38;1.13;;;30.30;43.10;;;;;;4999558;28;20074;-77
2022/05/11 13:23:00;;;;;;;5.90;1.48;;;30.40;43.30;;;;;;4995506;28;20057;-77
2022/05/11 13:25:50;;;;;;;4.05;1.23;;;30.50;41.60;;;;;;4991920;28;20070;-77
2022/05/11 13:28:50;;;;;;;3.85;1.38;;;30.50;42.30;;;;;;4994314;28;20053;-77
2022/05/11 13:31:31;;;;;;;5.03;1.75;;;30.40;42.80;;;;;;4995457;28;20077;-77
2022/05/11 13:34:04;;;;;;;3.20;1.27;;;30.50;42.60;;;;;;5011645;28;20069;-76
2022/05/11 13:36:43;;;;;;;4.88;1.13;;;30.40;42.70;;;;;;5011599;28;20443;-77
2022/05/11 13:39:17;;;;;;;6.30;1.10;;;30.40;42.60;;;;;;5009815;28;20440;-77
2022/05/11 13:41:48;;;;;;;4.22;1.52;;;30.20;42.90;;;;;;4995149;28;20420;-77
2022/05/11 13:45:04;;;;;;;3.85;1.38;;;30.10;43.30;;;;;;5004718;28;20515;-77
2022/05/11 13:48:18;;;;;;;5.93;1.40;;;30.20;44.10;;;;;;4976752;28;20088;-77
2022/05/11 13:50:52;;;;;;;5.97;1.73;;;30.40;43.70;;;;;;4996981;28;20053;-77
2022/05/11 13:53:34;;;;;;;4.50;1.35;;;30.50;43.80;;;;;;5009091;28;20064;-76
2022/05/11 13:56:32;;;;;;;5.40;1.65;;;30.70;41.50;;;;;;5001049;28;21587;-79
2022/05/11 13:59:22;;;;;;;8.00;1.35;;;30.70;43.20;;;;;;5006948;28;20091;-78
2022/05/11 14:01:59;;;;;;;5.88;1.60;;;30.60;43.10;;;;;;5010991;28;20080;-76
2022/05/11 14:04:32;;;;;;;7.75;1.52;;;30.50;43.30;;;;;;5003772;28;20074;-75
2022/05/11 14:07:11;;;;;;;4.50;1.60;;;30.20;43.20;;;;;;4991486;28;20030;-75
2022/05/11 14:09:40;;;;;;;4.20;1.27;;;29.30;42.90;;;;;;5001051;28;20041;-78
2022/05/11 14:12:11;;;;;;;4.65;1.20;;;28.60;44.00;;;;;;5007986;28;20050;-78
2022/05/11 14:14:40;;;;;;;6.35;1.50;;;27.80;43.90;;;;;;4991806;28;20041;-78
2022/05/11 14:17:08;;;;;;;6.18;1.30;;;27.20;44.80;;;;;;4988573;28;20105;-78
2022/05/11 14:19:40;;;;;;;6.65;1.35;;;26.60;45.70;;;;;;5004964;28;20045;-78
2022/05/11 14:22:08;;;;;;;4.53;1.10;;;26.20;45.80;;;;;;4996100;28;20034;-78
2022/05/11 14:24:34;;;;;;;4.63;0.85;;;25.90;46.70;;;;;;5000396;28;20038;-78
2022/05/11 14:27:01;;;;;;;4.43;1.30;;;25.90;47.60;;;;;;5002188;28;20034;-78
2022/05/11 14:29:30;;;;;;;7.20;1.48;;;25.90;47.50;;;;;;4999153;28;20084;-78